Hlavní strana
METAR-TAF:

METAR-TAF

Letiště :

Cythera, Řecko

zeměpisná šířka: 36-17-21N, zeměpisná délka: 023-01-24E, výška: 321 m

Aktuální stav počasí

Zpráva byla vytvořena před 18 hodinami a 48 minutami, v 11:50 UTC
Severovýchodní vítr 18 kt s nárazy do 28 kt
Teplota 11°C
Vlhkost vzduchu 66%
Tlak 1030 hPa
Viditelnost 10 km a více
Skoro jasno ve výšce 2000 ft

METAR: LGKC 241150Z 05018G28KT 9999 FEW020 11/05 Q1030

Čas: 08:38 (06:38 UTC)

Předpověď počasí

Zpráva byla vytvořena před 1 hodinou a 38 minutami, v 05:00 UTC
Předpověď platná od 25 v 06 UTC do 25 v 15 UTC
Západojihozápadní vítr 10 kt
Viditelnost 10 km a více
Skoro jasno ve výšce 2000 ft

TAF: LGKC 250500Z 2506/2515 25010KT 9999 FEW020

Stav a předpovědi počasí z více než 4 000 letišť (zprávy METAR a TAF).

Červené a žluté tečky na mapě představují dostupné meteorologické stanice.

Když kurzor umístíte na tečku, zobrazí se název stanice.

Pak kliknutím zobrazíte stav a předpověď počasí.

Chcete-li změnit mapu, kliknutím na zelené tlačítko se znaménkem +mapu přiblížíte, kliknutím na zelené tlačítko se znaménkem – mapu oddálíte a kliknutím na zelené šipky přejdete na sousední mapy.


METAR-TAF: